sensor_id;sensor_type;location;lat;lon;timestamp;P1;durP1;ratioP1;P2;durP2;ratioP2
21430;SDS011;10876;49.038;10.608;2022-08-01T00:02:01;3.40;;;3.08;;
21430;SDS011;10876;49.038;10.608;2022-08-01T00:04:28;5.85;;;3.20;;
21430;SDS011;10876;49.038;10.608;2022-08-01T00:06:56;5.78;;;3.25;;
21430;SDS011;10876;49.038;10.608;2022-08-01T00:09:23;3.35;;;2.70;;
21430;SDS011;10876;49.038;10.608;2022-08-01T00:11:50;5.53;;;3.00;;
21430;SDS011;10876;49.038;10.608;2022-08-01T00:14:17;4.20;;;3.05;;
21430;SDS011;10876;49.038;10.608;2022-08-01T00:16:44;3.75;;;2.70;;
21430;SDS011;10876;49.038;10.608;2022-08-01T00:19:12;4.35;;;2.92;;
21430;SDS011;10876;49.038;10.608;2022-08-01T00:21:39;3.67;;;2.60;;
21430;SDS011;10876;49.038;10.608;2022-08-01T00:24:06;4.90;;;2.97;;
21430;SDS011;10876;49.038;10.608;2022-08-01T00:26:34;3.90;;;2.83;;
21430;SDS011;10876;49.038;10.608;2022-08-01T00:29:01;3.22;;;2.80;;
21430;SDS011;10876;49.038;10.608;2022-08-01T00:31:28;3.75;;;2.85;;
21430;SDS011;10876;49.038;10.608;2022-08-01T00:33:55;4.72;;;2.90;;
21430;SDS011;10876;49.038;10.608;2022-08-01T00:36:23;3.33;;;2.58;;
21430;SDS011;10876;49.038;10.608;2022-08-01T00:38:50;2.90;;;2.55;;
21430;SDS011;10876;49.038;10.608;2022-08-01T00:41:17;2.63;;;2.28;;
21430;SDS011;10876;49.038;10.608;2022-08-01T00:43:45;3.00;;;2.70;;
21430;SDS011;10876;49.038;10.608;2022-08-01T01:29:51;2.75;;;2.40;;
21430;SDS011;10876;49.038;10.608;2022-08-01T01:32:22;3.13;;;2.30;;
21430;SDS011;10876;49.038;10.608;2022-08-01T01:34:59;3.10;;;2.00;;
21430;SDS011;10876;49.038;10.608;2022-08-01T01:37:28;3.50;;;2.30;;
21430;SDS011;10876;49.038;10.608;2022-08-01T01:39:58;3.25;;;2.40;;
21430;SDS011;10876;49.038;10.608;2022-08-01T01:42:27;3.08;;;2.20;;
21430;SDS011;10876;49.038;10.608;2022-08-01T01:44:58;4.38;;;2.50;;
21430;SDS011;10876;49.038;10.608;2022-08-01T01:47:26;4.75;;;2.40;;
21430;SDS011;10876;49.038;10.608;2022-08-01T01:49:54;3.55;;;2.70;;
21430;SDS011;10876;49.038;10.608;2022-08-01T01:52:24;4.15;;;2.40;;
21430;SDS011;10876;49.038;10.608;2022-08-01T01:54:54;3.28;;;2.28;;
21430;SDS011;10876;49.038;10.608;2022-08-01T01:57:23;3.13;;;2.20;;
21430;SDS011;10876;49.038;10.608;2022-08-01T01:59:50;2.83;;;2.50;;
21430;SDS011;10876;49.038;10.608;2022-08-01T02:02:21;5.90;;;2.83;;
21430;SDS011;10876;49.038;10.608;2022-08-01T02:04:50;4.07;;;2.17;;
21430;SDS011;10876;49.038;10.608;2022-08-01T02:07:20;3.30;;;2.42;;
21430;SDS011;10876;49.038;10.608;2022-08-01T02:09:50;4.63;;;2.50;;
21430;SDS011;10876;49.038;10.608;2022-08-01T02:12:18;2.83;;;2.40;;
21430;SDS011;10876;49.038;10.608;2022-08-01T02:14:47;3.03;;;2.45;;
21430;SDS011;10876;49.038;10.608;2022-08-01T02:17:17;3.30;;;2.65;;
21430;SDS011;10876;49.038;10.608;2022-08-01T02:19:47;3.10;;;2.80;;
21430;SDS011;10876;49.038;10.608;2022-08-01T02:22:16;2.65;;;2.20;;
21430;SDS011;10876;49.038;10.608;2022-08-01T02:24:49;3.58;;;2.50;;
21430;SDS011;10876;49.038;10.608;2022-08-01T02:27:21;3.10;;;2.47;;
21430;SDS011;10876;49.038;10.608;2022-08-01T02:29:53;3.40;;;2.50;;
21430;SDS011;10876;49.038;10.608;2022-08-01T02:32:27;4.00;;;2.40;;
21430;SDS011;10876;49.038;10.608;2022-08-01T02:35:00;3.40;;;2.50;;
21430;SDS011;10876;49.038;10.608;2022-08-01T02:37:29;3.83;;;2.20;;
21430;SDS011;10876;49.038;10.608;2022-08-01T02:40:00;2.50;;;2.30;;
21430;SDS011;10876;49.038;10.608;2022-08-01T02:42:28;3.13;;;2.00;;
21430;SDS011;10876;49.038;10.608;2022-08-01T02:44:56;4.93;;;2.58;;
21430;SDS011;10876;49.038;10.608;2022-08-01T02:47:25;3.90;;;2.28;;
21430;SDS011;10876;49.038;10.608;2022-08-01T02:49:55;2.80;;;2.40;;
21430;SDS011;10876;49.038;10.608;2022-08-01T02:52:25;3.33;;;2.60;;
21430;SDS011;10876;49.038;10.608;2022-08-01T02:54:56;2.90;;;2.20;;
21430;SDS011;10876;49.038;10.608;2022-08-01T02:57:25;2.20;;;2.00;;
21430;SDS011;10876;49.038;10.608;2022-08-01T02:59:55;3.92;;;2.20;;
21430;SDS011;10876;49.038;10.608;2022-08-01T03:02:24;3.85;;;2.70;;
21430;SDS011;10876;49.038;10.608;2022-08-01T03:04:52;2.85;;;2.47;;
21430;SDS011;10876;49.038;10.608;2022-08-01T03:07:20;3.85;;;2.70;;
21430;SDS011;10876;49.038;10.608;2022-08-01T03:09:50;3.33;;;2.53;;
21430;SDS011;10876;49.038;10.608;2022-08-01T03:12:19;2.92;;;2.53;;
21430;SDS011;10876;49.038;10.608;2022-08-01T03:14:53;3.30;;;2.70;;
21430;SDS011;10876;49.038;10.608;2022-08-01T03:17:23;3.10;;;2.58;;
21430;SDS011;10876;49.038;10.608;2022-08-01T03:19:52;3.25;;;2.25;;
21430;SDS011;10876;49.038;10.608;2022-08-01T03:22:21;4.93;;;2.80;;
21430;SDS011;10876;49.038;10.608;2022-08-01T03:24:52;3.67;;;2.40;;
21430;SDS011;10876;49.038;10.608;2022-08-01T03:27:20;3.03;;;2.50;;
21430;SDS011;10876;49.038;10.608;2022-08-01T03:29:49;3.47;;;2.78;;
21430;SDS011;10876;49.038;10.608;2022-08-01T03:32:18;3.35;;;2.88;;
21430;SDS011;10876;49.038;10.608;2022-08-01T03:34:47;3.60;;;2.90;;
21430;SDS011;10876;49.038;10.608;2022-08-01T03:37:17;3.53;;;3.17;;
21430;SDS011;10876;49.038;10.608;2022-08-01T03:39:53;2.90;;;2.63;;
21430;SDS011;10876;49.038;10.608;2022-08-01T03:42:25;4.32;;;3.00;;
21430;SDS011;10876;49.038;10.608;2022-08-01T03:44:58;4.03;;;3.13;;
21430;SDS011;10876;49.038;10.608;2022-08-01T03:47:29;3.78;;;2.60;;
21430;SDS011;10876;49.038;10.608;2022-08-01T03:50:00;5.85;;;3.05;;
21430;SDS011;10876;49.038;10.608;2022-08-01T03:52:29;3.67;;;2.92;;
21430;SDS011;10876;49.038;10.608;2022-08-01T03:55:01;3.78;;;2.40;;
21430;SDS011;10876;49.038;10.608;2022-08-01T03:57:32;5.45;;;2.90;;
21430;SDS011;10876;49.038;10.608;2022-08-01T04:00:00;3.72;;;3.00;;
21430;SDS011;10876;49.038;10.608;2022-08-01T04:02:27;3.70;;;2.95;;
21430;SDS011;10876;49.038;10.608;2022-08-01T04:04:55;3.95;;;3.03;;
21430;SDS011;10876;49.038;10.608;2022-08-01T04:07:23;3.30;;;2.80;;
21430;SDS011;10876;49.038;10.608;2022-08-01T04:09:52;4.93;;;2.90;;
21430;SDS011;10876;49.038;10.608;2022-08-01T04:12:20;4.32;;;3.10;;
21430;SDS011;10876;49.038;10.608;2022-08-01T04:14:47;3.65;;;2.55;;
21430;SDS011;10876;49.038;10.608;2022-08-01T04:17:15;3.97;;;2.70;;
21430;SDS011;10876;49.038;10.608;2022-08-01T04:19:42;3.90;;;2.75;;
21430;SDS011;10876;49.038;10.608;2022-08-01T04:22:10;5.72;;;3.08;;
21430;SDS011;10876;49.038;10.608;2022-08-01T04:24:39;5.32;;;3.00;;
21430;SDS011;10876;49.038;10.608;2022-08-01T04:27:11;4.13;;;2.65;;
21430;SDS011;10876;49.038;10.608;2022-08-01T04:29:42;5.57;;;3.13;;
21430;SDS011;10876;49.038;10.608;2022-08-01T04:32:11;3.50;;;3.03;;
21430;SDS011;10876;49.038;10.608;2022-08-01T04:34:41;4.18;;;3.33;;
21430;SDS011;10876;49.038;10.608;2022-08-01T04:37:12;3.72;;;2.90;;
21430;SDS011;10876;49.038;10.608;2022-08-01T04:39:42;4.22;;;3.30;;
21430;SDS011;10876;49.038;10.608;2022-08-01T04:42:09;5.30;;;3.30;;
21430;SDS011;10876;49.038;10.608;2022-08-01T04:44:38;3.63;;;2.78;;
21430;SDS011;10876;49.038;10.608;2022-08-01T04:47:07;3.47;;;2.85;;
21430;SDS011;10876;49.038;10.608;2022-08-01T04:49:35;4.63;;;3.00;;
21430;SDS011;10876;49.038;10.608;2022-08-01T04:52:04;3.47;;;2.80;;
21430;SDS011;10876;49.038;10.608;2022-08-01T04:54:32;3.00;;;2.70;;
21430;SDS011;10876;49.038;10.608;2022-08-01T04:57:02;5.18;;;2.90;;
21430;SDS011;10876;49.038;10.608;2022-08-01T04:59:30;4.93;;;2.90;;
21430;SDS011;10876;49.038;10.608;2022-08-01T05:02:09;5.53;;;2.90;;
21430;SDS011;10876;49.038;10.608;2022-08-01T05:04:38;4.20;;;3.13;;
21430;SDS011;10876;49.038;10.608;2022-08-01T05:07:06;4.30;;;2.80;;
21430;SDS011;10876;49.038;10.608;2022-08-01T05:09:33;4.57;;;3.22;;
21430;SDS011;10876;49.038;10.608;2022-08-01T05:12:01;3.72;;;3.08;;
21430;SDS011;10876;49.038;10.608;2022-08-01T05:14:29;4.13;;;2.95;;
21430;SDS011;10876;49.038;10.608;2022-08-01T05:16:58;4.22;;;3.03;;
21430;SDS011;10876;49.038;10.608;2022-08-01T05:19:29;6.13;;;3.25;;
21430;SDS011;10876;49.038;10.608;2022-08-01T05:21:58;4.55;;;2.97;;
21430;SDS011;10876;49.038;10.608;2022-08-01T05:24:26;4.97;;;3.10;;
21430;SDS011;10876;49.038;10.608;2022-08-01T05:26:54;4.03;;;3.20;;
21430;SDS011;10876;49.038;10.608;2022-08-01T05:29:21;6.20;;;3.10;;
21430;SDS011;10876;49.038;10.608;2022-08-01T05:31:48;5.10;;;3.25;;
21430;SDS011;10876;49.038;10.608;2022-08-01T05:34:15;5.13;;;2.97;;
21430;SDS011;10876;49.038;10.608;2022-08-01T05:36:44;6.40;;;3.15;;
21430;SDS011;10876;49.038;10.608;2022-08-01T05:39:11;3.65;;;2.85;;
21430;SDS011;10876;49.038;10.608;2022-08-01T05:41:39;3.35;;;2.95;;
21430;SDS011;10876;49.038;10.608;2022-08-01T05:44:06;3.88;;;2.97;;
21430;SDS011;10876;49.038;10.608;2022-08-01T05:46:34;3.72;;;3.20;;
21430;SDS011;10876;49.038;10.608;2022-08-01T05:49:02;4.47;;;2.75;;
21430;SDS011;10876;49.038;10.608;2022-08-01T05:51:30;3.22;;;2.55;;
21430;SDS011;10876;49.038;10.608;2022-08-01T05:53:59;3.47;;;2.70;;
21430;SDS011;10876;49.038;10.608;2022-08-01T05:56:27;5.35;;;2.90;;
21430;SDS011;10876;49.038;10.608;2022-08-01T05:58:55;3.80;;;2.53;;
21430;SDS011;10876;49.038;10.608;2022-08-01T06:01:31;3.00;;;2.70;;
21430;SDS011;10876;49.038;10.608;2022-08-01T06:03:58;4.70;;;2.85;;
21430;SDS011;10876;49.038;10.608;2022-08-01T06:06:25;3.72;;;2.75;;
21430;SDS011;10876;49.038;10.608;2022-08-01T06:08:52;5.25;;;2.95;;
21430;SDS011;10876;49.038;10.608;2022-08-01T06:11:24;3.63;;;2.50;;
21430;SDS011;10876;49.038;10.608;2022-08-01T06:13:56;3.70;;;3.10;;
21430;SDS011;10876;49.038;10.608;2022-08-01T06:16:23;3.00;;;2.70;;
21430;SDS011;10876;49.038;10.608;2022-08-01T06:18:50;4.15;;;2.90;;
21430;SDS011;10876;49.038;10.608;2022-08-01T06:21:17;3.50;;;2.90;;
21430;SDS011;10876;49.038;10.608;2022-08-01T06:23:46;3.33;;;3.00;;
21430;SDS011;10876;49.038;10.608;2022-08-01T06:26:19;4.35;;;2.90;;
21430;SDS011;10876;49.038;10.608;2022-08-01T06:28:48;5.38;;;2.80;;
21430;SDS011;10876;49.038;10.608;2022-08-01T06:31:15;3.75;;;3.10;;
21430;SDS011;10876;49.038;10.608;2022-08-01T06:33:44;3.88;;;2.80;;
21430;SDS011;10876;49.038;10.608;2022-08-01T06:36:11;3.75;;;2.72;;
21430;SDS011;10876;49.038;10.608;2022-08-01T06:38:38;3.60;;;2.80;;
21430;SDS011;10876;49.038;10.608;2022-08-01T06:41:05;3.35;;;2.67;;
21430;SDS011;10876;49.038;10.608;2022-08-01T06:43:32;3.97;;;2.85;;
21430;SDS011;10876;49.038;10.608;2022-08-01T06:46:00;2.53;;;2.33;;
21430;SDS011;10876;49.038;10.608;2022-08-01T06:48:27;3.58;;;3.08;;
21430;SDS011;10876;49.038;10.608;2022-08-01T06:50:53;3.47;;;2.80;;
21430;SDS011;10876;49.038;10.608;2022-08-01T06:53:33;2.78;;;2.58;;
21430;SDS011;10876;49.038;10.608;2022-08-01T07:27:54;4.05;;;2.50;;
21430;SDS011;10876;49.038;10.608;2022-08-01T07:30:21;3.33;;;2.63;;
21430;SDS011;10876;49.038;10.608;2022-08-01T07:32:48;3.13;;;2.65;;
21430;SDS011;10876;49.038;10.608;2022-08-01T07:35:16;3.17;;;2.55;;
21430;SDS011;10876;49.038;10.608;2022-08-01T07:37:43;3.03;;;2.70;;
21430;SDS011;10876;49.038;10.608;2022-08-01T07:40:10;3.70;;;3.10;;
21430;SDS011;10876;49.038;10.608;2022-08-01T07:42:37;3.17;;;2.88;;
21430;SDS011;10876;49.038;10.608;2022-08-01T07:45:06;3.50;;;2.72;;
21430;SDS011;10876;49.038;10.608;2022-08-01T07:47:34;5.18;;;2.90;;
21430;SDS011;10876;49.038;10.608;2022-08-01T07:50:01;3.72;;;2.35;;
21430;SDS011;10876;49.038;10.608;2022-08-01T07:52:29;2.30;;;2.10;;
21430;SDS011;10876;49.038;10.608;2022-08-01T07:54:57;4.00;;;2.30;;
21430;SDS011;10876;49.038;10.608;2022-08-01T07:57:25;2.42;;;2.10;;
21430;SDS011;10876;49.038;10.608;2022-08-01T07:59:52;3.53;;;2.00;;
21430;SDS011;10876;49.038;10.608;2022-08-01T08:02:20;2.92;;;2.13;;
21430;SDS011;10876;49.038;10.608;2022-08-01T08:04:47;2.10;;;1.90;;
21430;SDS011;10876;49.038;10.608;2022-08-01T08:07:14;2.50;;;2.30;;
21430;SDS011;10876;49.038;10.608;2022-08-01T08:09:41;2.53;;;2.20;;
21430;SDS011;10876;49.038;10.608;2022-08-01T08:12:08;3.13;;;2.40;;
21430;SDS011;10876;49.038;10.608;2022-08-01T08:14:37;2.97;;;2.35;;
21430;SDS011;10876;49.038;10.608;2022-08-01T08:17:14;2.78;;;2.15;;
21430;SDS011;10876;49.038;10.608;2022-08-01T08:19:42;2.35;;;1.88;;
21430;SDS011;10876;49.038;10.608;2022-08-01T08:22:09;2.13;;;1.73;;
21430;SDS011;10876;49.038;10.608;2022-08-01T08:24:36;2.13;;;1.80;;
21430;SDS011;10876;49.038;10.608;2022-08-01T08:27:03;3.00;;;1.77;;
21430;SDS011;10876;49.038;10.608;2022-08-01T08:29:31;2.67;;;1.58;;
21430;SDS011;10876;49.038;10.608;2022-08-01T08:31:58;4.75;;;1.75;;
21430;SDS011;10876;49.038;10.608;2022-08-01T08:34:26;3.55;;;1.85;;
21430;SDS011;10876;49.038;10.608;2022-08-01T08:36:56;1.60;;;1.50;;
21430;SDS011;10876;49.038;10.608;2022-08-01T08:39:24;4.13;;;1.80;;
21430;SDS011;10876;49.038;10.608;2022-08-01T08:41:52;2.13;;;1.52;;
21430;SDS011;10876;49.038;10.608;2022-08-01T08:44:19;2.67;;;1.90;;
21430;SDS011;10876;49.038;10.608;2022-08-01T08:46:47;2.30;;;1.50;;
21430;SDS011;10876;49.038;10.608;2022-08-01T08:49:17;4.63;;;1.50;;
21430;SDS011;10876;49.038;10.608;2022-08-01T08:51:47;2.67;;;1.63;;
21430;SDS011;10876;49.038;10.608;2022-08-01T08:54:17;2.00;;;1.20;;
21430;SDS011;10876;49.038;10.608;2022-08-01T08:56:46;2.15;;;1.20;;
21430;SDS011;10876;49.038;10.608;2022-08-01T08:59:14;1.60;;;1.15;;
21430;SDS011;10876;49.038;10.608;2022-08-01T09:01:41;2.92;;;1.33;;
21430;SDS011;10876;49.038;10.608;2022-08-01T09:04:09;1.92;;;1.10;;
21430;SDS011;10876;49.038;10.608;2022-08-01T09:06:37;2.08;;;1.17;;
21430;SDS011;10876;49.038;10.608;2022-08-01T09:09:04;1.98;;;1.30;;
21430;SDS011;10876;49.038;10.608;2022-08-01T09:11:34;2.78;;;1.33;;
21430;SDS011;10876;49.038;10.608;2022-08-01T09:14:02;1.95;;;1.00;;
21430;SDS011;10876;49.038;10.608;2022-08-01T09:16:31;2.03;;;1.23;;
21430;SDS011;10876;49.038;10.608;2022-08-01T09:19:09;3.20;;;1.00;;
21430;SDS011;10876;49.038;10.608;2022-08-01T09:21:38;2.72;;;1.10;;
21430;SDS011;10876;49.038;10.608;2022-08-01T09:24:13;1.58;;;1.10;;
21430;SDS011;10876;49.038;10.608;2022-08-01T09:26:43;1.20;;;1.10;;
21430;SDS011;10876;49.038;10.608;2022-08-01T09:29:17;1.27;;;1.10;;
21430;SDS011;10876;49.038;10.608;2022-08-01T09:31:46;3.92;;;1.27;;
21430;SDS011;10876;49.038;10.608;2022-08-01T09:34:14;2.80;;;1.15;;
21430;SDS011;10876;49.038;10.608;2022-08-01T09:36:48;1.13;;;0.90;;
21430;SDS011;10876;49.038;10.608;2022-08-01T09:39:22;1.90;;;1.20;;
21430;SDS011;10876;49.038;10.608;2022-08-01T09:41:52;1.45;;;1.20;;
21430;SDS011;10876;49.038;10.608;2022-08-01T09:44:19;1.50;;;1.15;;
21430;SDS011;10876;49.038;10.608;2022-08-01T09:47:03;0.90;;;0.90;;
21430;SDS011;10876;49.038;10.608;2022-08-01T09:49:31;1.20;;;1.10;;
21430;SDS011;10876;49.038;10.608;2022-08-01T09:51:59;1.58;;;1.10;;
21430;SDS011;10876;49.038;10.608;2022-08-01T09:54:38;2.72;;;0.90;;
21430;SDS011;10876;49.038;10.608;2022-08-01T09:57:09;3.20;;;1.00;;
21430;SDS011;10876;49.038;10.608;2022-08-01T09:59:39;1.60;;;0.90;;
21430;SDS011;10876;49.038;10.608;2022-08-01T10:02:08;1.17;;;1.05;;
21430;SDS011;10876;49.038;10.608;2022-08-01T10:04:45;2.53;;;0.90;;
21430;SDS011;10876;49.038;10.608;2022-08-01T10:07:12;1.00;;;0.80;;
21430;SDS011;10876;49.038;10.608;2022-08-01T10:09:41;2.08;;;0.90;;
21430;SDS011;10876;49.038;10.608;2022-08-01T10:12:10;4.20;;;1.23;;
21430;SDS011;10876;49.038;10.608;2022-08-01T10:14:39;0.90;;;0.90;;
21430;SDS011;10876;49.038;10.608;2022-08-01T10:17:07;2.45;;;0.98;;
21430;SDS011;10876;49.038;10.608;2022-08-01T10:19:38;1.00;;;0.90;;
21430;SDS011;10876;49.038;10.608;2022-08-01T10:22:08;2.00;;;0.77;;
21430;SDS011;10876;49.038;10.608;2022-08-01T10:24:39;1.45;;;0.90;;
21430;SDS011;10876;49.038;10.608;2022-08-01T10:29:59;2.85;;;1.10;;
21430;SDS011;10876;49.038;10.608;2022-08-01T10:32:28;0.80;;;0.77;;
21430;SDS011;10876;49.038;10.608;2022-08-01T10:34:56;2.00;;;0.90;;
21430;SDS011;10876;49.038;10.608;2022-08-01T10:37:23;1.95;;;0.82;;
21430;SDS011;10876;49.038;10.608;2022-08-01T10:39:51;1.45;;;0.90;;
21430;SDS011;10876;49.038;10.608;2022-08-01T10:42:19;1.23;;;0.85;;
21430;SDS011;10876;49.038;10.608;2022-08-01T10:44:48;3.45;;;1.23;;
21430;SDS011;10876;49.038;10.608;2022-08-01T10:47:17;1.08;;;0.98;;
21430;SDS011;10876;49.038;10.608;2022-08-01T10:49:48;1.33;;;0.80;;
21430;SDS011;10876;49.038;10.608;2022-08-01T10:52:20;0.98;;;0.90;;
21430;SDS011;10876;49.038;10.608;2022-08-01T10:54:47;2.03;;;0.90;;
21430;SDS011;10876;49.038;10.608;2022-08-01T10:57:34;2.67;;;1.00;;
21430;SDS011;10876;49.038;10.608;2022-08-01T11:00:10;1.13;;;0.82;;
21430;SDS011;10876;49.038;10.608;2022-08-01T11:02:56;0.98;;;0.95;;
21430;SDS011;10876;49.038;10.608;2022-08-01T11:05:26;1.05;;;0.95;;
21430;SDS011;10876;49.038;10.608;2022-08-01T11:07:57;2.60;;;1.17;;
21430;SDS011;10876;49.038;10.608;2022-08-01T11:10:28;0.75;;;0.70;;
21430;SDS011;10876;49.038;10.608;2022-08-01T11:13:01;0.90;;;0.90;;
21430;SDS011;10876;49.038;10.608;2022-08-01T11:15:34;1.88;;;0.90;;
21430;SDS011;10876;49.038;10.608;2022-08-01T11:18:02;3.00;;;0.90;;
21430;SDS011;10876;49.038;10.608;2022-08-01T11:20:31;2.55;;;1.15;;
21430;SDS011;10876;49.038;10.608;2022-08-01T11:31:40;1.73;;;1.30;;
21430;SDS011;10876;49.038;10.608;2022-08-01T11:34:07;1.17;;;1.05;;
21430;SDS011;10876;49.038;10.608;2022-08-01T11:36:35;2.25;;;1.05;;
21430;SDS011;10876;49.038;10.608;2022-08-01T11:39:17;3.67;;;1.02;;
21430;SDS011;10876;49.038;10.608;2022-08-01T11:41:46;2.88;;;0.90;;
21430;SDS011;10876;49.038;10.608;2022-08-01T11:44:18;2.88;;;1.00;;
21430;SDS011;10876;49.038;10.608;2022-08-01T11:46:59;2.20;;;1.10;;
21430;SDS011;10876;49.038;10.608;2022-08-01T11:49:29;2.53;;;1.08;;
21430;SDS011;10876;49.038;10.608;2022-08-01T11:52:10;1.58;;;1.00;;
21430;SDS011;10876;49.038;10.608;2022-08-01T11:54:39;1.30;;;1.00;;
21430;SDS011;10876;49.038;10.608;2022-08-01T11:57:08;2.45;;;1.30;;
21430;SDS011;10876;49.038;10.608;2022-08-01T11:59:38;1.63;;;0.90;;
21430;SDS011;10876;49.038;10.608;2022-08-01T12:02:21;1.58;;;1.15;;
21430;SDS011;10876;49.038;10.608;2022-08-01T12:04:50;2.47;;;1.05;;
21430;SDS011;10876;49.038;10.608;2022-08-01T12:07:19;2.15;;;1.10;;
21430;SDS011;10876;49.038;10.608;2022-08-01T12:09:46;1.00;;;0.90;;
21430;SDS011;10876;49.038;10.608;2022-08-01T12:12:15;1.63;;;1.50;;
21430;SDS011;10876;49.038;10.608;2022-08-01T12:14:46;2.40;;;0.98;;
21430;SDS011;10876;49.038;10.608;2022-08-01T12:20:10;2.42;;;1.02;;
21430;SDS011;10876;49.038;10.608;2022-08-01T12:22:39;3.40;;;1.17;;
21430;SDS011;10876;49.038;10.608;2022-08-01T12:25:08;1.58;;;1.13;;
21430;SDS011;10876;49.038;10.608;2022-08-01T12:27:37;1.65;;;1.00;;
21430;SDS011;10876;49.038;10.608;2022-08-01T12:30:10;3.60;;;0.75;;
21430;SDS011;10876;49.038;10.608;2022-08-01T12:32:41;2.08;;;0.98;;
21430;SDS011;10876;49.038;10.608;2022-08-01T12:35:10;2.85;;;0.80;;
21430;SDS011;10876;49.038;10.608;2022-08-01T12:37:39;1.13;;;1.00;;
21430;SDS011;10876;49.038;10.608;2022-08-01T12:40:10;1.35;;;0.82;;
21430;SDS011;10876;49.038;10.608;2022-08-01T12:42:38;2.15;;;0.80;;
21430;SDS011;10876;49.038;10.608;2022-08-01T12:45:08;4.18;;;1.38;;
21430;SDS011;10876;49.038;10.608;2022-08-01T12:47:38;6.75;;;1.10;;
21430;SDS011;10876;49.038;10.608;2022-08-01T12:50:08;2.45;;;0.95;;
21430;SDS011;10876;49.038;10.608;2022-08-01T12:52:41;2.17;;;0.98;;
21430;SDS011;10876;49.038;10.608;2022-08-01T12:55:10;2.17;;;0.93;;
21430;SDS011;10876;49.038;10.608;2022-08-01T12:57:39;3.90;;;0.88;;
21430;SDS011;10876;49.038;10.608;2022-08-01T13:00:10;1.67;;;0.77;;
21430;SDS011;10876;49.038;10.608;2022-08-01T13:02:43;0.70;;;0.70;;
21430;SDS011;10876;49.038;10.608;2022-08-01T13:05:12;0.95;;;0.90;;
21430;SDS011;10876;49.038;10.608;2022-08-01T13:07:40;0.80;;;0.75;;
21430;SDS011;10876;49.038;10.608;2022-08-01T13:10:10;0.82;;;0.80;;
21430;SDS011;10876;49.038;10.608;2022-08-01T13:12:38;1.48;;;0.80;;
21430;SDS011;10876;49.038;10.608;2022-08-01T13:15:16;1.73;;;1.08;;
21430;SDS011;10876;49.038;10.608;2022-08-01T13:17:48;2.08;;;0.80;;
21430;SDS011;10876;49.038;10.608;2022-08-01T13:20:24;2.40;;;0.93;;
21430;SDS011;10876;49.038;10.608;2022-08-01T13:22:53;4.22;;;0.95;;
21430;SDS011;10876;49.038;10.608;2022-08-01T13:25:20;1.50;;;0.80;;
21430;SDS011;10876;49.038;10.608;2022-08-01T13:27:47;1.15;;;0.80;;
21430;SDS011;10876;49.038;10.608;2022-08-01T13:30:15;1.52;;;1.08;;
21430;SDS011;10876;49.038;10.608;2022-08-01T13:32:43;2.42;;;1.00;;
21430;SDS011;10876;49.038;10.608;2022-08-01T13:35:12;2.42;;;0.80;;
21430;SDS011;10876;49.038;10.608;2022-08-01T13:37:41;1.45;;;0.80;;
21430;SDS011;10876;49.038;10.608;2022-08-01T13:40:09;1.42;;;0.82;;
21430;SDS011;10876;49.038;10.608;2022-08-01T13:42:37;0.70;;;0.70;;
21430;SDS011;10876;49.038;10.608;2022-08-01T13:45:05;1.30;;;0.70;;
21430;SDS011;10876;49.038;10.608;2022-08-01T13:47:36;1.23;;;0.70;;
21430;SDS011;10876;49.038;10.608;2022-08-01T13:50:04;1.83;;;0.90;;
21430;SDS011;10876;49.038;10.608;2022-08-01T13:52:31;1.23;;;0.80;;
21430;SDS011;10876;49.038;10.608;2022-08-01T13:55:00;0.77;;;0.75;;
21430;SDS011;10876;49.038;10.608;2022-08-01T13:57:27;1.05;;;0.93;;
21430;SDS011;10876;49.038;10.608;2022-08-01T13:59:54;0.73;;;0.70;;
21430;SDS011;10876;49.038;10.608;2022-08-01T14:02:24;2.88;;;0.90;;
21430;SDS011;10876;49.038;10.608;2022-08-01T14:04:52;1.27;;;1.10;;
21430;SDS011;10876;49.038;10.608;2022-08-01T14:07:19;1.83;;;0.80;;
21430;SDS011;10876;49.038;10.608;2022-08-01T14:09:46;1.10;;;0.80;;
21430;SDS011;10876;49.038;10.608;2022-08-01T14:12:14;1.45;;;0.80;;
21430;SDS011;10876;49.038;10.608;2022-08-01T14:14:42;1.63;;;0.75;;
21430;SDS011;10876;49.038;10.608;2022-08-01T14:17:09;2.08;;;1.83;;
21430;SDS011;10876;49.038;10.608;2022-08-01T14:19:35;18.15;;;13.70;;
21430;SDS011;10876;49.038;10.608;2022-08-01T14:22:03;2.42;;;1.05;;
21430;SDS011;10876;49.038;10.608;2022-08-01T14:24:30;0.52;;;0.52;;
21430;SDS011;10876;49.038;10.608;2022-08-01T14:26:57;1.30;;;0.75;;
21430;SDS011;10876;49.038;10.608;2022-08-01T14:29:25;1.63;;;0.50;;
21430;SDS011;10876;49.038;10.608;2022-08-01T14:31:52;1.33;;;0.63;;
21430;SDS011;10876;49.038;10.608;2022-08-01T14:34:20;0.60;;;0.60;;
21430;SDS011;10876;49.038;10.608;2022-08-01T14:36:47;0.93;;;0.63;;
21430;SDS011;10876;49.038;10.608;2022-08-01T14:39:14;1.02;;;0.80;;
21430;SDS011;10876;49.038;10.608;2022-08-01T14:41:41;2.75;;;0.85;;
21430;SDS011;10876;49.038;10.608;2022-08-01T14:44:08;1.00;;;0.50;;
21430;SDS011;10876;49.038;10.608;2022-08-01T14:46:36;0.60;;;0.52;;
21430;SDS011;10876;49.038;10.608;2022-08-01T14:49:03;0.52;;;0.50;;
21430;SDS011;10876;49.038;10.608;2022-08-01T14:51:30;0.50;;;0.50;;
21430;SDS011;10876;49.038;10.608;2022-08-01T14:53:59;1.50;;;0.75;;
21430;SDS011;10876;49.038;10.608;2022-08-01T14:56:26;2.05;;;0.80;;
21430;SDS011;10876;49.038;10.608;2022-08-01T14:58:53;1.15;;;0.57;;
21430;SDS011;10876;49.038;10.608;2022-08-01T15:01:20;1.65;;;0.50;;
21430;SDS011;10876;49.038;10.608;2022-08-01T15:03:58;0.95;;;0.60;;
21430;SDS011;10876;49.038;10.608;2022-08-01T15:06:32;4.22;;;0.60;;
21430;SDS011;10876;49.038;10.608;2022-08-01T15:09:01;0.98;;;0.52;;
21430;SDS011;10876;49.038;10.608;2022-08-01T15:11:29;2.15;;;0.60;;
21430;SDS011;10876;49.038;10.608;2022-08-01T15:13:56;1.17;;;0.80;;
21430;SDS011;10876;49.038;10.608;2022-08-01T15:16:40;1.15;;;0.60;;
21430;SDS011;10876;49.038;10.608;2022-08-01T15:19:09;0.82;;;0.63;;
21430;SDS011;10876;49.038;10.608;2022-08-01T15:21:36;0.75;;;0.55;;
21430;SDS011;10876;49.038;10.608;2022-08-01T15:24:04;0.80;;;0.55;;
21430;SDS011;10876;49.038;10.608;2022-08-01T15:26:31;1.40;;;0.57;;
21430;SDS011;10876;49.038;10.608;2022-08-01T15:28:58;0.70;;;0.60;;
21430;SDS011;10876;49.038;10.608;2022-08-01T15:31:25;1.77;;;0.60;;
21430;SDS011;10876;49.038;10.608;2022-08-01T15:33:52;3.58;;;0.70;;
21430;SDS011;10876;49.038;10.608;2022-08-01T15:36:21;1.67;;;0.55;;
21430;SDS011;10876;49.038;10.608;2022-08-01T15:38:48;0.85;;;0.60;;
21430;SDS011;10876;49.038;10.608;2022-08-01T15:41:15;1.05;;;0.60;;
21430;SDS011;10876;49.038;10.608;2022-08-01T15:43:41;0.88;;;0.70;;
21430;SDS011;10876;49.038;10.608;2022-08-01T15:46:09;1.13;;;0.60;;
21430;SDS011;10876;49.038;10.608;2022-08-01T15:48:36;0.60;;;0.55;;
21430;SDS011;10876;49.038;10.608;2022-08-01T15:51:03;0.60;;;0.60;;
21430;SDS011;10876;49.038;10.608;2022-08-01T15:53:31;2.65;;;0.70;;
21430;SDS011;10876;49.038;10.608;2022-08-01T15:55:58;0.80;;;0.75;;
21430;SDS011;10876;49.038;10.608;2022-08-01T15:58:25;1.25;;;0.60;;
21430;SDS011;10876;49.038;10.608;2022-08-01T16:00:52;1.75;;;0.68;;
21430;SDS011;10876;49.038;10.608;2022-08-01T16:03:19;0.85;;;0.70;;
21430;SDS011;10876;49.038;10.608;2022-08-01T16:05:47;3.08;;;0.63;;
21430;SDS011;10876;49.038;10.608;2022-08-01T16:08:14;1.33;;;0.60;;
21430;SDS011;10876;49.038;10.608;2022-08-01T16:10:43;2.58;;;0.68;;
21430;SDS011;10876;49.038;10.608;2022-08-01T16:13:19;0.70;;;0.70;;
21430;SDS011;10876;49.038;10.608;2022-08-01T16:15:46;0.60;;;0.60;;